Time;durP1;ratioP1;P1;durP2;ratioP2;P2;SDS_P1;SDS_P2;PMS_P1;PMS_P2;Temp;Humidity;BMP_temperature;BMP_pressure;BME280_temperature;BME280_humidity;BME280_pressure;Samples;Min_cycle;Max_cycle;Signal;HPM_P1;HPM_P2
2022/03/21 00:16:46;;;;;;;36.03;18.08;;;;;;;5.01;55.66;102525.16;5203618;23;20054;-87
2022/03/21 00:19:15;;;;;;;34.35;17.95;;;;;;;5.17;55.60;102526.09;4944430;28;20058;-87
2022/03/21 00:21:40;;;;;;;37.83;17.65;;;;;;;5.25;54.81;102530.97;4958705;28;20364;-88
2022/03/21 00:35:08;;;;;;;28.73;17.77;;;;;;;4.96;55.05;102539.47;5033090;23;20079;-87
2022/03/21 00:37:42;;;;;;;26.52;15.88;;;;;;;4.95;54.53;102530.75;4963583;29;20502;-88
2022/03/21 00:40:46;;;;;;;30.77;17.15;;;;;;;5.08;54.00;102528.34;4976778;28;20043;-87
2022/03/21 01:28:03;;;;;;;30.90;15.40;;;;;;;4.99;58.00;102523.56;5035771;23;20051;-87
2022/03/21 01:33:40;;;;;;;35.20;18.17;;;;;;;4.97;59.10;102514.91;4648280;26;20054;-86
2022/03/21 01:36:37;;;;;;;29.80;17.45;;;;;;;4.78;59.60;102516.72;4980814;28;20117;-87
2022/03/21 01:39:07;;;;;;;31.88;17.73;;;;;;;4.86;59.88;102512.81;5192885;23;20039;-87
2022/03/21 01:41:48;;;;;;;31.92;17.17;;;;;;;5.11;59.21;102509.78;4947900;28;20038;-85
2022/03/21 01:44:30;;;;;;;33.35;18.02;;;;;;;5.15;58.59;102513.97;4979180;23;20027;-87
2022/03/21 01:47:08;;;;;;;31.08;18.13;;;;;;;5.04;59.21;102511.88;4973711;28;20034;-87
2022/03/21 01:50:15;;;;;;;35.35;17.67;;;;;;;4.93;59.89;102508.97;4967440;28;20059;-92
2022/03/21 02:10:02;;;;;;;26.20;13.87;;;;;;;4.78;62.09;102506.22;5447088;23;20043;-87
2022/03/21 02:13:15;;;;;;;29.33;17.00;;;;;;;4.94;61.42;102499.31;4942993;28;20066;-85
2022/03/21 02:15:56;;;;;;;29.75;16.95;;;;;;;5.04;60.59;102496.09;4980454;28;20019;-86
2022/03/21 02:18:38;;;;;;;29.20;17.50;;;;;;;5.15;59.14;102492.94;4966178;28;20023;-87
2022/03/21 02:27:21;;;;;;;23.80;13.83;;;;;;;4.43;62.72;102498.34;3964813;23;20294;-87
2022/03/21 02:30:09;;;;;;;31.08;17.30;;;;;;;4.44;63.34;102489.50;4963954;28;20109;-84
2022/03/21 02:33:42;;;;;;;31.55;17.15;;;;;;;4.23;64.60;102489.72;4977005;28;20058;-83
2022/03/21 02:37:03;;;;;;;36.95;17.67;;;;;;;4.57;63.26;102492.41;4977170;23;20471;-89
2022/03/21 02:39:29;;;;;;;31.38;17.77;;;;;;;4.26;64.27;102485.16;4947833;29;20438;-89
2022/03/21 02:41:56;;;;;;;36.03;18.80;;;;;;;4.15;64.67;102483.03;4926559;29;20063;-89
2022/03/21 02:44:22;;;;;;;34.20;18.10;;;;;;;4.39;64.35;102496.78;4925849;29;20046;-89
2022/03/21 02:46:48;;;;;;;34.55;18.25;;;;;;;4.28;64.88;102498.19;4959525;29;20043;-89
2022/03/21 02:49:15;;;;;;;35.55;17.10;;;;;;;4.00;65.36;102498.66;4942408;29;20036;-90
2022/03/21 02:51:42;;;;;;;30.65;17.25;;;;;;;4.09;65.79;102495.59;4941850;29;20047;-89
2022/03/21 02:54:15;;;;;;;34.97;17.92;;;;;;;4.17;65.05;102498.72;4925962;29;20070;-89
2022/03/21 02:56:41;;;;;;;35.22;18.30;;;;;;;4.18;64.80;102497.78;4929002;28;20101;-88
2022/03/21 02:59:06;;;;;;;33.60;17.77;;;;;;;4.15;65.27;102495.31;4948352;28;20035;-89
2022/03/21 03:01:32;;;;;;;37.38;17.73;;;;;;;4.04;65.30;102495.81;4963591;28;20051;-89
2022/03/21 03:04:01;;;;;;;33.17;17.63;;;;;;;4.12;66.10;102500.72;4962894;28;20038;-86
2022/03/21 03:06:27;;;;;;;32.85;18.27;;;;;;;4.26;64.96;102489.56;4962108;29;20059;-88
2022/03/21 03:08:55;;;;;;;36.50;18.58;;;;;;;4.09;66.11;102487.75;4940467;29;20069;-88
2022/03/21 03:11:20;;;;;;;34.95;18.83;;;;;;;3.86;67.03;102490.59;4956757;29;20089;-87
2022/03/21 03:13:46;;;;;;;38.95;19.13;;;;;;;3.96;67.33;102486.63;4957611;29;20372;-89
2022/03/21 03:16:14;;;;;;;33.58;18.38;;;;;;;4.13;67.03;102491.91;4956692;29;20046;-87
2022/03/21 03:18:44;;;;;;;33.35;17.70;;;;;;;4.04;67.02;102490.56;4939289;29;20039;-88
2022/03/21 03:21:10;;;;;;;33.92;18.40;;;;;;;4.07;66.82;102493.06;4956555;29;20035;-89
2022/03/21 03:23:38;;;;;;;28.60;17.65;;;;;;;4.21;66.22;102494.19;4956284;29;20041;-85
2022/03/21 03:26:05;;;;;;;31.95;19.13;;;;;;;3.96;68.01;102497.09;4955747;29;20638;-89
2022/03/21 03:28:31;;;;;;;34.83;19.10;;;;;;;3.82;67.84;102497.75;4939197;29;20032;-88
2022/03/21 03:31:01;;;;;;;43.72;18.85;;;;;;;3.70;69.54;102500.06;4938910;29;20102;-86
2022/03/21 03:33:27;;;;;;;37.60;18.80;;;;;;;3.70;69.81;102489.59;4940010;29;20046;-87
2022/03/21 03:35:53;;;;;;;33.63;18.42;;;;;;;3.69;69.05;102498.38;4955578;28;20043;-86
2022/03/21 03:38:19;;;;;;;36.10;19.05;;;;;;;3.76;68.63;102494.56;4939332;29;20078;-87
2022/03/21 03:40:46;;;;;;;30.85;17.83;;;;;;;3.65;70.03;102498.50;4938892;29;20139;-87
2022/03/21 03:43:14;;;;;;;30.83;17.70;;;;;;;3.62;69.83;102498.66;4956317;29;20114;-87
2022/03/21 03:45:46;;;;;;;36.78;19.38;;;;;;;3.58;70.18;102501.47;4939181;29;20043;-86
2022/03/21 03:48:11;;;;;;;32.90;18.87;;;;;;;3.62;70.26;102492.56;4922895;29;20406;-85
2022/03/21 03:50:37;;;;;;;35.03;17.63;;;;;;;3.49;70.18;102497.50;4939435;29;20043;-87
2022/03/21 03:53:03;;;;;;;33.92;18.80;;;;;;;3.68;69.70;102494.06;4956913;29;20058;-86
2022/03/21 03:55:28;;;;;;;39.08;19.75;;;;;;;3.61;69.77;102496.13;4955926;29;20387;-87
2022/03/21 03:57:54;;;;;;;43.40;19.95;;;;;;;3.75;68.58;102492.84;4956353;29;20427;-87
2022/03/21 04:00:19;;;;;;;33.10;19.55;;;;;;;3.75;68.97;102496.31;4957039;29;20035;-86
2022/03/21 04:05:29;;;;;;;31.08;18.60;;;;;;;3.64;70.20;102499.44;4939521;29;20419;-87
2022/03/21 04:07:56;;;;;;;35.85;18.92;;;;;;;3.80;69.23;102496.13;4956738;29;20028;-87
2022/03/21 04:10:22;;;;;;;33.10;18.65;;;;;;;3.68;69.58;102491.44;4957048;29;20039;-88
2022/03/21 04:12:49;;;;;;;37.22;19.33;;;;;;;3.56;70.36;102496.31;4924201;29;20065;-86
2022/03/21 04:15:18;;;;;;;38.97;19.73;;;;;;;3.67;70.09;102500.22;4957022;29;20035;-89
2022/03/21 04:17:47;;;;;;;37.90;21.33;;;;;;;3.33;71.73;102496.47;4923678;29;20054;-86
2022/03/21 04:20:13;;;;;;;36.53;19.58;;;;;;;3.19;72.70;102506.72;4938849;29;20040;-87
2022/03/21 04:22:38;;;;;;;32.35;18.63;;;;;;;3.23;72.66;102504.81;4957319;29;20050;-87
2022/03/21 04:25:09;;;;;;;32.33;18.95;;;;;;;3.35;72.63;102501.63;4951599;29;20047;-87
2022/03/21 04:27:35;;;;;;;31.13;19.00;;;;;;;3.45;72.20;102501.16;4946034;29;20035;-85
2022/03/21 04:30:01;;;;;;;30.33;18.90;;;;;;;3.35;71.89;102505.13;4956137;29;20145;-86
2022/03/21 04:32:27;;;;;;;35.13;19.45;;;;;;;3.42;71.90;102511.78;4957971;29;20039;-87
2022/03/21 04:34:53;;;;;;;41.15;19.88;;;;;;;3.36;72.19;102504.22;4938895;29;20058;-88
2022/03/21 04:37:19;;;;;;;33.05;19.48;;;;;;;3.45;71.78;102498.56;4940263;29;20119;-86
2022/03/21 04:39:45;;;;;;;36.15;20.55;;;;;;;3.39;71.72;102490.97;4941498;29;20062;-86
2022/03/21 04:42:11;;;;;;;45.85;20.65;;;;;;;3.58;71.87;102486.59;4958813;29;20038;-86
2022/03/21 04:44:39;;;;;;;36.30;20.58;;;;;;;3.60;71.17;102487.41;4960061;29;20033;-89
2022/03/21 04:47:06;;;;;;;35.15;20.70;;;;;;;3.30;72.29;102496.63;4958725;28;20050;-89
2022/03/21 04:49:32;;;;;;;37.95;21.63;;;;;;;3.20;73.13;102497.09;4961401;29;20086;-87
2022/03/21 04:51:57;;;;;;;39.30;20.90;;;;;;;3.29;72.97;102497.53;4960929;29;20043;-89
2022/03/21 04:54:23;;;;;;;37.58;21.35;;;;;;;3.39;72.47;102498.81;4947985;29;20028;-88
2022/03/21 04:56:48;;;;;;;39.53;22.17;;;;;;;3.36;72.83;102504.22;4960893;29;20039;-88
2022/03/21 04:59:14;;;;;;;41.25;21.77;;;;;;;3.30;72.95;102512.34;4945946;29;20396;-89
2022/03/21 05:01:40;;;;;;;40.63;22.45;;;;;;;3.19;74.00;102506.72;4938566;29;20051;-86
2022/03/21 05:04:05;;;;;;;36.17;21.48;;;;;;;3.08;74.50;102503.72;4938598;29;20394;-84
2022/03/21 05:06:31;;;;;;;36.30;20.10;;;;;;;3.19;74.80;102498.84;4949950;29;20562;-86
2022/03/21 05:08:59;;;;;;;42.67;20.98;;;;;;;3.24;74.60;102501.28;4951839;29;20036;-88
2022/03/21 05:11:30;;;;;;;29.77;15.35;;;;;;;3.55;72.89;102505.09;4947102;29;20039;-88
2022/03/21 05:14:01;;;;;;;42.05;21.67;;;;;;;3.47;72.76;102511.59;4964933;29;20487;-91
2022/03/21 05:16:32;;;;;;;45.67;21.20;;;;;;;3.69;72.31;102520.19;4940734;29;20048;-89
2022/03/21 05:18:58;;;;;;;40.03;21.23;;;;;;;3.74;72.19;102512.13;4969656;23;20059;-90
2022/03/21 05:21:24;;;;;;;39.80;20.48;;;;;;;3.53;72.07;102520.03;4949404;29;20045;-90
2022/03/21 05:32:06;;;;;;;40.67;21.05;;;;;;;3.28;75.41;102523.81;4959085;29;20043;-86
2022/03/21 05:37:27;;;;;;;43.47;22.88;;;;;;;3.38;74.33;102539.03;4936767;28;20044;-86
2022/03/21 05:42:37;;;;;;;47.35;22.38;;;;;;;3.23;76.49;102537.09;4947099;29;20027;-88
2022/03/21 05:48:59;;;;;;;50.35;22.40;;;;;;;3.53;74.96;102545.41;4974439;28;20067;-87
2022/03/21 05:51:29;;;;;;;46.90;22.52;;;;;;;3.60;74.82;102555.56;4981334;28;20031;-89
2022/03/21 05:53:59;;;;;;;60.20;23.40;;;;;;;3.53;75.62;102556.75;4976812;28;20094;-86
2022/03/21 05:56:27;;;;;;;59.33;24.50;;;;;;;3.63;74.57;102568.53;4957728;29;20471;-87
2022/03/21 05:58:53;;;;;;;45.95;23.13;;;;;;;3.95;74.19;102563.59;4946285;28;20063;-86
2022/03/21 06:01:22;;;;;;;44.90;23.30;;;;;;;4.35;72.23;102562.59;4969443;29;20063;-87
2022/03/21 06:06:30;;;;;;;43.83;23.30;;;;;;;4.66;70.59;102568.97;4932986;26;20102;-86
2022/03/21 06:08:55;;;;;;;47.22;22.05;;;;;;;4.77;70.89;102575.47;4973088;28;20039;-85
2022/03/21 06:11:21;;;;;;;50.50;25.20;;;;;;;4.88;70.02;102579.25;4977981;28;20542;-81
2022/03/21 06:13:47;;;;;;;46.22;22.80;;;;;;;4.82;70.13;102579.56;4963844;28;20042;-84
2022/03/21 06:16:17;;;;;;;48.55;23.05;;;;;;;5.04;68.66;102579.34;4986931;28;20042;-87
2022/03/21 06:18:46;;;;;;;46.35;23.33;;;;;;;5.44;68.01;102586.91;4994572;28;20066;-87
2022/03/21 06:21:12;;;;;;;49.08;22.70;;;;;;;5.54;67.06;102584.66;4970023;28;20062;-88
2022/03/21 06:23:43;;;;;;;46.22;22.52;;;;;;;6.07;64.56;102584.50;4972428;28;20054;-88
2022/03/21 06:26:09;;;;;;;46.03;21.80;;;;;;;6.02;63.62;102591.81;4970947;28;20041;-89
2022/03/21 06:28:36;;;;;;;43.58;21.38;;;;;;;6.24;61.95;102589.69;4988431;28;20042;-87
2022/03/21 06:31:02;;;;;;;48.05;22.88;;;;;;;6.26;62.38;102594.91;4986109;28;20045;-89
2022/03/21 06:33:30;;;;;;;45.15;21.13;;;;;;;6.47;60.84;102586.66;4974633;28;20050;-87
2022/03/21 06:36:03;;;;;;;35.63;21.25;;;;;;;6.82;59.76;102589.09;4991801;28;20043;-91
2022/03/21 06:38:30;;;;;;;50.00;22.50;;;;;;;7.12;58.49;102595.25;4993928;28;20062;-87
2022/03/21 06:40:57;;;;;;;40.88;21.05;;;;;;;7.34;57.98;102598.31;4969195;28;20031;-89
2022/03/21 06:43:24;;;;;;;54.83;21.52;;;;;;;6.96;59.43;102597.06;4980829;28;20039;-89
2022/03/21 06:45:51;;;;;;;44.70;20.88;;;;;;;7.20;59.09;102598.25;4981269;28;20034;-88
2022/03/21 06:48:22;;;;;;;45.95;22.73;;;;;;;7.03;60.57;102601.88;4982598;28;20509;-89
2022/03/21 06:50:50;;;;;;;46.28;20.85;;;;;;;7.35;59.16;102599.16;4978191;28;20058;-90
2022/03/21 06:53:16;;;;;;;44.78;22.05;;;;;;;7.40;58.68;102608.50;4964464;28;20023;-90
2022/03/21 06:55:42;;;;;;;48.10;22.38;;;;;;;7.60;58.89;102609.94;4961064;28;20038;-89
2022/03/21 06:58:12;;;;;;;43.55;22.55;;;;;;;8.19;56.91;102603.63;4977039;28;20114;-89
2022/03/21 07:00:39;;;;;;;43.83;21.17;;;;;;;8.08;56.94;102619.31;4976007;28;20080;-88
2022/03/21 07:03:05;;;;;;;40.95;21.63;;;;;;;7.95;57.21;102613.09;4975843;28;20062;-87
2022/03/21 07:05:31;;;;;;;41.05;21.70;;;;;;;8.45;56.26;102616.09;4976429;28;20038;-85
2022/03/21 07:07:56;;;;;;;42.13;20.63;;;;;;;9.18;53.99;102611.34;4979151;28;20043;-87
2022/03/21 07:10:22;;;;;;;32.08;19.17;;;;;;;9.13;52.76;102618.72;4962981;28;20053;-86
2022/03/21 07:12:48;;;;;;;35.88;20.42;;;;;;;8.99;54.07;102622.25;4961161;28;20039;-90
2022/03/21 07:15:15;;;;;;;35.78;20.38;;;;;;;8.78;53.46;102611.28;4977289;28;20026;-88
2022/03/21 07:17:42;;;;;;;37.45;20.40;;;;;;;9.06;52.67;102623.56;4977884;28;20046;-86
2022/03/21 07:20:12;;;;;;;51.08;19.88;;;;;;;9.81;50.96;102620.19;4977801;28;20038;-88
2022/03/21 07:22:38;;;;;;;35.67;21.17;;;;;;;9.76;50.53;102619.66;4975497;28;20042;-87
2022/03/21 07:25:06;;;;;;;34.35;19.30;;;;;;;11.16;47.83;102631.66;4974659;28;20038;-88
2022/03/21 07:27:32;;;;;;;46.78;19.60;;;;;;;10.97;48.51;102622.50;4957488;28;20073;-88
2022/03/21 07:29:59;;;;;;;34.40;20.73;;;;;;;11.73;45.13;102626.38;4957578;28;20390;-84
2022/03/21 07:32:24;;;;;;;42.17;21.33;;;;;;;11.07;46.37;102629.66;4941920;28;20516;-86
2022/03/21 07:34:50;;;;;;;46.28;20.92;;;;;;;11.22;46.64;102640.94;4974662;28;20039;-85
2022/03/21 07:37:15;;;;;;;50.92;20.60;;;;;;;11.43;45.77;102642.00;4957753;28;20034;-86
2022/03/21 07:39:44;;;;;;;38.70;19.77;;;;;;;11.50;46.19;102650.34;4977825;28;20034;-87
2022/03/21 07:42:15;;;;;;;37.42;20.02;;;;;;;11.58;45.91;102648.78;4974805;28;20054;-85
2022/03/21 07:47:25;;;;;;;41.08;20.10;;;;;;;11.83;45.36;102651.28;4976063;28;20080;-85
2022/03/21 07:49:53;;;;;;;47.55;21.15;;;;;;;12.02;45.01;102653.38;4976639;28;20046;-89
2022/03/21 07:52:20;;;;;;;45.72;22.58;;;;;;;11.84;44.91;102645.00;4975327;28;20125;-87
2022/03/21 07:54:53;;;;;;;40.53;20.40;;;;;;;11.93;44.30;102640.81;4975553;28;20034;-88
2022/03/21 07:57:24;;;;;;;38.80;21.08;;;;;;;12.06;44.63;102646.00;4958243;28;20043;-89
2022/03/21 07:59:51;;;;;;;35.13;20.42;;;;;;;12.81;43.49;102641.69;4975443;28;20482;-89
2022/03/21 08:02:19;;;;;;;34.63;19.85;;;;;;;14.47;39.94;102651.44;4979015;28;20093;-86
2022/03/21 08:04:47;;;;;;;41.78;22.20;;;;;;;14.66;38.38;102647.97;4978959;28;20039;-91
2022/03/21 08:07:16;;;;;;;39.63;20.77;;;;;;;14.37;38.28;102655.91;4958433;28;20039;-89
2022/03/21 08:09:42;;;;;;;38.67;20.65;;;;;;;14.73;37.62;102643.78;4976582;28;20035;-84
2022/03/21 08:12:08;;;;;;;38.80;22.42;;;;;;;13.76;39.39;102652.31;4959947;28;20394;-89
2022/03/21 08:14:35;;;;;;;35.72;21.20;;;;;;;12.59;41.54;102652.41;4985451;28;20031;-90
2022/03/21 08:17:02;;;;;;;36.20;19.88;;;;;;;12.80;41.64;102646.19;4946145;29;20071;-86
2022/03/21 08:19:29;;;;;;;35.03;20.42;;;;;;;12.54;42.47;102649.25;4942829;28;20039;-86
2022/03/21 08:21:54;;;;;;;40.97;21.77;;;;;;;12.44;42.63;102649.13;4959825;28;20380;-90
2022/03/21 08:24:22;;;;;;;34.85;20.75;;;;;;;13.76;39.17;102652.31;4980154;28;20038;-88
2022/03/21 08:26:47;;;;;;;41.65;21.38;;;;;;;13.48;38.52;102642.31;4979457;28;20494;-90
2022/03/21 08:29:13;;;;;;;36.78;20.92;;;;;;;13.07;39.66;102653.72;4952694;28;20043;-89
2022/03/21 08:31:39;;;;;;;35.17;20.20;;;;;;;12.77;39.81;102657.06;4975319;28;20035;-89
2022/03/21 08:34:05;;;;;;;35.80;21.05;;;;;;;12.79;39.95;102647.13;4960713;28;20478;-87
2022/03/21 08:36:31;;;;;;;42.80;19.85;;;;;;;13.40;39.62;102647.44;4961785;28;20042;-87
2022/03/21 08:38:58;;;;;;;41.67;20.02;;;;;;;14.13;37.11;102658.00;4974073;28;20086;-88
2022/03/21 08:41:23;;;;;;;39.88;20.83;;;;;;;14.50;36.31;102653.00;5001731;28;20023;-88
2022/03/21 08:43:49;;;;;;;38.38;20.55;;;;;;;14.34;36.90;102658.00;4984964;28;20045;-86
2022/03/21 08:46:14;;;;;;;33.45;20.00;;;;;;;14.83;35.48;102658.00;4999849;28;20019;-90
2022/03/21 08:51:24;;;;;;;38.13;19.67;;;;;;;14.09;37.27;102663.72;4946520;29;20051;-90
2022/03/21 08:53:51;;;;;;;30.40;17.50;;;;;;;14.89;36.01;102654.75;4959235;29;20058;-89
2022/03/21 08:56:20;;;;;;;35.67;20.63;;;;;;;14.32;37.04;102650.06;4959074;29;20114;-88
2022/03/21 08:58:45;;;;;;;37.13;19.95;;;;;;;14.37;37.37;102658.56;4941690;29;20089;-88
2022/03/21 09:01:11;;;;;;;33.63;18.75;;;;;;;15.06;36.53;102649.72;4959070;29;20063;-88
2022/03/21 09:03:39;;;;;;;28.58;19.35;;;;;;;15.70;34.90;102656.22;4958056;28;20039;-90
2022/03/21 09:06:05;;;;;;;36.15;19.15;;;;;;;15.52;35.94;102656.06;4959163;29;20102;-89
2022/03/21 09:08:30;;;;;;;32.15;19.42;;;;;;;15.24;36.13;102648.06;4960069;29;20027;-87
2022/03/21 09:10:56;;;;;;;33.92;19.45;;;;;;;15.63;35.57;102655.09;4972140;28;20046;-89
2022/03/21 09:13:24;;;;;;;30.45;18.80;;;;;;;15.29;36.19;102645.78;4960738;28;20046;-89
2022/03/21 09:15:50;;;;;;;27.83;18.80;;;;;;;14.89;36.96;102638.75;4976843;28;20482;-89
2022/03/21 09:18:15;;;;;;;32.40;18.65;;;;;;;15.41;36.49;102637.47;4978359;28;20041;-89
2022/03/21 09:20:41;;;;;;;28.55;18.42;;;;;;;15.20;36.88;102638.63;4960375;28;20035;-87
2022/03/21 09:23:07;;;;;;;33.88;18.48;;;;;;;14.14;38.10;102635.69;4960177;28;20114;-89
2022/03/21 09:25:33;;;;;;;35.20;17.73;;;;;;;13.92;38.38;102634.03;4959860;28;20505;-90
2022/03/21 09:27:58;;;;;;;27.67;16.70;;;;;;;13.96;38.38;102631.94;4977341;28;20034;-89
2022/03/21 09:30:27;;;;;;;32.58;17.27;;;;;;;15.12;36.00;102638.47;4977680;28;20536;-90
2022/03/21 09:32:52;;;;;;;26.33;18.08;;;;;;;14.71;36.26;102632.41;4960542;28;20046;-88
2022/03/21 09:35:18;;;;;;;24.98;16.23;;;;;;;14.26;37.04;102626.63;4943299;28;20050;-87
2022/03/21 09:37:44;;;;;;;23.35;15.05;;;;;;;15.08;35.44;102626.41;4976744;28;20030;-88
2022/03/21 09:40:10;;;;;;;33.08;15.52;;;;;;;15.90;33.74;102630.25;4960105;28;20046;-88
2022/03/21 09:42:36;;;;;;;27.73;15.75;;;;;;;16.10;33.56;102631.03;4960377;28;20043;-90
2022/03/21 09:45:03;;;;;;;26.50;16.23;;;;;;;16.82;32.26;102623.06;4959469;28;20053;-88
2022/03/21 09:50:15;;;;;;;25.27;13.52;;;;;;;16.77;31.21;102626.19;4977180;28;20035;-88
2022/03/21 09:52:42;;;;;;;25.80;13.20;;;;;;;16.23;31.74;102626.19;4961003;28;20789;-89
2022/03/21 09:55:08;;;;;;;22.52;15.38;;;;;;;15.94;32.67;102624.47;4966798;28;20039;-88
2022/03/21 09:57:35;;;;;;;22.70;14.13;;;;;;;15.60;32.49;102625.97;4944521;29;20041;-89
2022/03/21 10:00:00;;;;;;;25.88;14.63;;;;;;;15.41;32.83;102621.44;4940892;29;20050;-87
2022/03/21 10:02:26;;;;;;;24.13;13.98;;;;;;;15.16;33.04;102618.53;4959353;29;20032;-90
2022/03/21 10:04:55;;;;;;;25.50;15.82;;;;;;;15.55;32.70;102614.84;4958341;29;20065;-89
2022/03/21 10:07:25;;;;;;;25.35;14.68;;;;;;;15.28;33.49;102614.75;4973656;28;20034;-88
2022/03/21 10:10:18;;;;;;;21.90;14.07;;;;;;;15.94;31.92;102616.44;4957069;28;20439;-88
2022/03/21 10:12:44;;;;;;;21.65;13.13;;;;;;;15.72;31.81;102616.78;4941306;29;20054;-91
2022/03/21 10:15:11;;;;;;;26.15;13.73;;;;;;;16.09;31.85;102616.81;4957939;29;20027;-88
2022/03/21 10:17:37;;;;;;;22.33;12.60;;;;;;;16.44;30.11;102624.09;4941473;29;20035;-90
2022/03/21 10:20:07;;;;;;;26.00;13.38;;;;;;;16.41;30.43;102619.03;4940356;29;20106;-91
2022/03/21 10:22:32;;;;;;;24.83;14.57;;;;;;;15.82;30.66;102617.63;4957952;29;20050;-89
2022/03/21 10:25:11;;;;;;;24.05;14.07;;;;;;;15.75;31.59;102613.81;4958118;29;20031;-91
2022/03/21 10:27:42;;;;;;;24.10;14.13;;;;;;;16.24;31.02;102611.84;4957742;29;20074;-88
2022/03/21 10:30:15;;;;;;;31.73;13.40;;;;;;;16.38;30.54;102619.34;4941309;29;20047;-89
2022/03/21 10:32:46;;;;;;;26.40;13.38;;;;;;;16.28;30.00;102607.84;4939583;29;20094;-88
2022/03/21 10:35:26;;;;;;;22.42;11.80;;;;;;;16.18;29.32;102604.38;4939596;29;20094;-91
2022/03/21 10:37:55;;;;;;;24.27;12.57;;;;;;;16.03;30.42;102593.34;4929678;29;20039;-90
2022/03/21 10:40:41;;;;;;;21.95;11.85;;;;;;;16.24;29.58;102590.44;4943107;29;20495;-89
2022/03/21 10:43:09;;;;;;;21.25;12.20;;;;;;;16.56;29.59;102587.31;4948437;29;20039;-90
2022/03/21 10:45:35;;;;;;;23.10;11.60;;;;;;;16.74;28.84;102586.31;4956736;28;20486;-88
2022/03/21 10:48:04;;;;;;;24.92;12.93;;;;;;;17.13;27.58;102583.34;4940744;29;20035;-89
2022/03/21 10:50:40;;;;;;;26.23;12.15;;;;;;;17.43;27.21;102588.28;4927637;29;20031;-90
2022/03/21 10:53:14;;;;;;;21.63;12.05;;;;;;;17.84;26.59;102579.50;4956691;28;20551;-89
2022/03/21 10:56:02;;;;;;;21.08;12.23;;;;;;;18.00;26.94;102573.38;4938518;29;20043;-88
2022/03/21 10:58:36;;;;;;;18.40;10.68;;;;;;;17.35;26.22;102580.16;4940815;29;20558;-90
2022/03/21 11:01:14;;;;;;;21.75;10.77;;;;;;;17.35;26.42;102572.97;4927611;29;20043;-86
2022/03/21 11:03:41;;;;;;;22.50;11.60;;;;;;;16.94;26.70;102570.94;4940945;28;20039;-88
2022/03/21 11:06:11;;;;;;;20.80;11.18;;;;;;;17.59;26.19;102569.66;4976991;28;20038;-87
2022/03/21 11:08:37;;;;;;;21.60;11.15;;;;;;;17.92;25.40;102574.22;4977519;28;20041;-87
2022/03/21 11:11:04;;;;;;;20.48;11.10;;;;;;;19.25;24.36;102561.59;4962204;28;20049;-89
2022/03/21 11:13:31;;;;;;;30.13;11.57;;;;;;;18.85;24.18;102565.13;4959539;28;20039;-90
2022/03/21 11:15:58;;;;;;;16.45;10.13;;;;;;;19.78;22.73;102566.41;4960742;28;20035;-90
2022/03/21 11:18:26;;;;;;;16.33;10.00;;;;;;;18.79;23.34;102557.69;4959574;29;20035;-89
2022/03/21 11:20:52;;;;;;;15.77;10.30;;;;;;;18.75;22.98;102553.69;4945441;29;20042;-89
2022/03/21 11:23:19;;;;;;;17.98;10.77;;;;;;;18.66;23.71;102551.97;4941921;29;20463;-90
2022/03/21 11:26:10;;;;;;;18.48;10.32;;;;;;;19.79;21.67;102554.63;4943775;29;20102;-87
2022/03/21 11:29:00;;;;;;;15.23;9.98;;;;;;;19.88;21.14;102560.81;4937458;29;20047;-91
2022/03/21 11:31:41;;;;;;;15.40;8.57;;;;;;;19.97;20.67;102555.25;4943150;29;20074;-87
2022/03/21 11:34:47;;;;;;;14.38;9.30;;;;;;;20.13;20.84;102554.31;4968533;28;20641;-88
2022/03/21 11:37:31;;;;;;;15.80;9.60;;;;;;;19.74;21.94;102540.84;4936753;29;20070;-87
2022/03/21 11:40:24;;;;;;;16.55;10.70;;;;;;;18.41;22.97;102539.47;4964095;28;20042;-86
2022/03/21 11:42:50;;;;;;;17.80;10.25;;;;;;;18.93;23.12;102527.50;4945484;29;20069;-89
2022/03/21 11:45:34;;;;;;;14.55;10.63;;;;;;;19.76;22.12;102538.81;4969828;29;20027;-88
2022/03/21 11:48:19;;;;;;;18.33;9.90;;;;;;;19.92;21.83;102532.56;4961489;29;20035;-89
2022/03/21 11:50:46;;;;;;;15.25;9.43;;;;;;;20.11;20.95;102527.59;4942997;29;20046;-88
2022/03/21 11:53:14;;;;;;;13.52;8.65;;;;;;;19.14;20.87;102521.59;4950751;29;20040;-87
2022/03/21 11:55:44;;;;;;;14.55;8.80;;;;;;;19.49;19.93;102515.00;4967914;28;20027;-90
2022/03/21 11:58:22;;;;;;;12.63;8.02;;;;;;;20.07;18.54;102515.47;4974520;28;20031;-89
2022/03/21 12:01:20;;;;;;;15.65;7.82;;;;;;;21.24;16.97;102517.91;4980499;28;20043;-90
2022/03/21 12:03:45;;;;;;;13.60;8.85;;;;;;;20.90;18.82;102502.16;4942224;28;20110;-89
2022/03/21 12:06:32;;;;;;;14.50;9.40;;;;;;;19.59;19.81;102500.38;4973789;28;20510;-88
2022/03/21 12:09:09;;;;;;;19.48;9.15;;;;;;;19.01;20.71;102495.25;4956481;28;20043;-92
2022/03/21 12:11:40;;;;;;;18.00;9.48;;;;;;;17.65;22.14;102488.56;4947083;28;20497;-90
2022/03/21 12:14:29;;;;;;;19.48;8.52;;;;;;;17.12;22.97;102488.72;4979477;28;20043;-88
2022/03/21 12:17:00;;;;;;;22.20;10.20;;;;;;;15.88;24.44;102482.47;4969058;28;20069;-87
2022/03/21 12:20:03;;;;;;;15.45;9.63;;;;;;;15.43;24.18;102477.03;4950605;28;20046;-91
2022/03/21 12:25:16;;;;;;;16.95;8.88;;;;;;;15.27;24.75;102474.13;4975020;28;20486;-90
2022/03/21 12:27:55;;;;;;;17.42;9.18;;;;;;;15.23;24.34;102476.25;4981392;28;20041;-87
2022/03/21 12:30:29;;;;;;;13.80;8.70;;;;;;;14.58;24.13;102461.03;4980401;28;20601;-89
2022/03/21 12:32:57;;;;;;;18.52;9.27;;;;;;;14.06;24.55;102461.34;4965537;28;20057;-88
2022/03/21 12:35:35;;;;;;;14.95;9.05;;;;;;;14.15;25.37;102455.22;4983616;28;20042;-89
2022/03/21 12:38:24;;;;;;;18.10;9.63;;;;;;;14.25;25.74;102448.88;4963765;28;20042;-84
2022/03/21 12:40:53;;;;;;;13.82;9.00;;;;;;;14.60;24.01;102458.22;4982762;28;20046;-90
2022/03/21 12:43:25;;;;;;;18.83;10.02;;;;;;;14.13;25.11;102449.16;4949820;28;20050;-85
2022/03/21 12:45:58;;;;;;;17.60;9.70;;;;;;;13.89;25.44;102445.03;4962897;28;20034;-91
2022/03/21 12:48:29;;;;;;;15.55;9.60;;;;;;;14.33;24.99;102432.19;4964700;28;20039;-87
2022/03/21 12:50:55;;;;;;;17.92;10.68;;;;;;;14.22;25.29;102440.34;4964120;28;20039;-86
2022/03/21 12:53:22;;;;;;;18.63;10.13;;;;;;;14.38;25.54;102438.00;4947153;28;20039;-84
2022/03/21 12:56:02;;;;;;;15.02;9.32;;;;;;;14.23;25.53;102428.69;4980336;28;20486;-88
2022/03/21 12:58:31;;;;;;;16.73;10.05;;;;;;;14.57;25.58;102429.13;4984279;28;20039;-89
2022/03/21 13:01:01;;;;;;;13.63;8.90;;;;;;;14.31;25.75;102421.69;4957573;28;20035;-87
2022/03/21 13:03:28;;;;;;;15.60;9.50;;;;;;;14.35;25.83;102419.63;4951949;29;20039;-86
2022/03/21 13:11:47;;;;;;;15.30;8.88;;;;;;;14.10;26.55;102406.78;4952932;29;20054;-87
2022/03/21 13:14:19;;;;;;;16.83;10.07;;;;;;;13.81;26.32;102407.59;4958246;28;20027;-89
2022/03/21 13:16:53;;;;;;;21.00;10.98;;;;;;;14.06;26.43;102405.34;4943108;28;20039;-91
2022/03/21 13:19:25;;;;;;;17.00;11.07;;;;;;;14.08;26.24;102395.41;4938351;28;20039;-93
2022/03/21 13:22:17;;;;;;;21.52;10.50;;;;;;;13.84;26.68;102393.97;4986086;28;20063;-94
2022/03/21 13:24:47;;;;;;;20.13;10.82;;;;;;;13.42;27.84;102376.50;4947275;28;20115;-92
2022/03/21 13:27:18;;;;;;;18.85;9.80;;;;;;;13.50;27.51;102379.31;4961418;28;20058;-92
2022/03/21 13:29:52;;;;;;;17.85;10.10;;;;;;;13.92;26.90;102382.59;4949004;29;20111;-89
2022/03/21 13:32:21;;;;;;;14.40;9.93;;;;;;;14.11;26.78;102376.47;4951612;28;20043;-92
2022/03/21 13:34:53;;;;;;;23.85;12.15;;;;;;;14.24;26.11;102380.53;4985092;28;20039;-86
2022/03/21 13:37:21;;;;;;;18.23;10.50;;;;;;;14.14;26.08;102379.69;4971441;28;20062;-90
2022/03/21 13:39:59;;;;;;;17.42;11.35;;;;;;;14.12;25.98;102364.84;4961775;28;20043;-85
2022/03/21 13:42:25;;;;;;;17.05;11.30;;;;;;;13.73;25.99;102364.78;4969870;28;20097;-88
2022/03/21 13:44:53;;;;;;;22.27;11.13;;;;;;;13.97;26.33;102365.25;4967942;28;20046;-87
2022/03/21 13:47:19;;;;;;;18.17;12.02;;;;;;;14.04;26.45;102367.34;4967654;28;20035;-87